createdAt,value
2018-03-30T00:00:17.716Z,93.99
2018-03-30T00:01:17.689Z,93.41
2018-03-30T00:02:17.662Z,93.51
2018-03-30T00:03:17.632Z,93.70
2018-03-30T00:04:17.611Z,92.47
2018-03-30T00:05:17.586Z,93.80
2018-03-30T00:06:17.557Z,93.60
2018-03-30T00:07:17.533Z,93.70
2018-03-30T00:08:17.500Z,93.99
2018-03-30T00:09:17.474Z,93.13
2018-03-30T00:10:17.440Z,93.80
2018-03-30T00:11:17.419Z,93.41
2018-03-30T00:12:17.387Z,93.04
2018-03-30T00:13:17.370Z,92.47
2018-03-30T00:14:17.338Z,93.80
2018-03-30T00:15:17.316Z,92.94
2018-03-30T00:16:17.288Z,93.23
2018-03-30T00:17:17.256Z,93.89
2018-03-30T00:18:17.228Z,92.75
2018-03-30T00:19:17.199Z,93.41
2018-03-30T00:20:17.177Z,93.13
2018-03-30T00:21:17.154Z,92.47
2018-03-30T00:22:17.122Z,93.04
2018-03-30T00:23:17.097Z,93.89
2018-03-30T00:24:17.112Z,93.60
2018-03-30T00:25:17.042Z,93.70
2018-03-30T00:26:17.013Z,93.04
2018-03-30T00:27:16.982Z,94.18
2018-03-30T00:28:16.965Z,93.51
2018-03-30T00:29:16.927Z,94.56
2018-03-30T00:30:16.913Z,93.99
2018-03-30T00:31:16.874Z,94.08
2018-03-30T00:32:16.862Z,93.80
2018-03-30T00:33:16.821Z,93.23
2018-03-30T00:34:16.805Z,93.04
2018-03-30T00:35:16.796Z,93.08
2018-03-30T00:36:16.856Z,94.18
2018-03-30T00:37:16.839Z,93.08
2018-03-30T00:38:16.702Z,93.04
2018-03-30T00:39:16.705Z,93.56
2018-03-30T00:40:16.654Z,92.99
2018-03-30T00:41:16.613Z,93.27
2018-03-30T00:42:16.584Z,93.75
2018-03-30T00:43:16.563Z,92.90
2018-03-30T00:44:16.523Z,93.84
2018-03-30T00:45:16.507Z,93.08
2018-03-30T00:46:16.471Z,93.56
2018-03-30T00:47:16.489Z,94.23
2018-03-30T00:48:16.418Z,93.75
2018-03-30T00:49:16.396Z,92.80
2018-03-30T00:50:16.369Z,93.46
2018-03-30T00:51:16.336Z,92.99
2018-03-30T00:52:16.322Z,94.23
2018-03-30T00:53:16.279Z,94.03
2018-03-30T00:54:16.300Z,94.23
2018-03-30T00:55:16.236Z,92.80
2018-03-30T00:56:16.204Z,94.32
2018-03-30T00:57:16.172Z,93.94
2018-03-30T00:58:16.156Z,92.99
2018-03-30T00:59:16.123Z,94.51
2018-03-30T01:00:16.104Z,92.71
2018-03-30T01:01:16.075Z,92.90
2018-03-30T01:02:16.061Z,94.51
2018-03-30T01:03:16.018Z,93.94
2018-03-30T01:04:15.998Z,94.32
2018-03-30T01:05:15.960Z,93.46
2018-03-30T01:06:15.936Z,93.75
2018-03-30T01:07:15.907Z,94.79
2018-03-30T01:08:15.882Z,93.37
2018-03-30T01:09:15.854Z,94.42
2018-03-30T01:10:15.825Z,93.46
2018-03-30T01:11:15.805Z,93.08
2018-03-30T01:12:15.786Z,94.89
2018-03-30T01:13:15.752Z,94.23
2018-03-30T01:14:15.721Z,92.99
2018-03-30T01:15:15.694Z,94.13
2018-03-30T01:16:15.674Z,93.94
2018-03-30T01:17:15.641Z,92.99
2018-03-30T01:18:15.610Z,94.13
2018-03-30T01:19:15.597Z,94.13
2018-03-30T01:20:15.561Z,93.75
2018-03-30T01:21:15.531Z,93.84
2018-03-30T01:22:15.505Z,94.13
2018-03-30T01:23:15.480Z,94.32
2018-03-30T01:24:15.449Z,94.23
2018-03-30T01:25:15.423Z,93.27
2018-03-30T01:26:15.401Z,93.18
2018-03-30T01:27:15.366Z,94.51
2018-03-30T01:28:15.347Z,92.61
2018-03-30T01:29:15.320Z,93.65
2018-03-30T01:30:15.311Z,93.84
2018-03-30T01:31:15.261Z,93.84
2018-03-30T01:32:15.239Z,93.75
2018-03-30T01:33:15.220Z,93.08
2018-03-30T01:34:15.186Z,93.27
2018-03-30T01:35:15.153Z,94.13
2018-03-30T01:36:15.130Z,92.80
2018-03-30T01:37:15.098Z,94.89
2018-03-30T01:38:15.096Z,93.56
2018-03-30T01:39:15.046Z,94.03
2018-03-30T01:40:15.024Z,94.13
2018-03-30T01:41:14.996Z,94.23
2018-03-30T01:42:14.967Z,93.56
2018-03-30T01:43:14.937Z,94.60
2018-03-30T01:44:14.919Z,93.84
2018-03-30T01:45:14.887Z,94.03
2018-03-30T01:46:14.862Z,93.27
2018-03-30T01:47:14.829Z,94.03
2018-03-30T01:48:14.813Z,93.27
2018-03-30T01:49:14.775Z,93.56
2018-03-30T01:50:14.750Z,93.94
2018-03-30T01:51:14.730Z,93.37
2018-03-30T01:52:14.704Z,93.94
2018-03-30T01:53:14.674Z,93.56
2018-03-30T01:54:14.650Z,93.18
2018-03-30T01:55:14.621Z,95.08
2018-03-30T01:56:14.615Z,94.32
2018-03-30T01:57:14.563Z,94.23
2018-03-30T01:58:14.540Z,93.08
2018-03-30T01:59:14.507Z,94.23
2018-03-30T02:00:14.483Z,93.56
2018-03-30T02:01:14.460Z,93.27
2018-03-30T02:02:14.431Z,94.23
2018-03-30T02:03:14.404Z,92.94
2018-03-30T02:04:14.384Z,93.46
2018-03-30T02:05:14.347Z,94.56
2018-03-30T02:06:14.317Z,93.51
2018-03-30T02:07:14.295Z,93.23
2018-03-30T02:08:14.271Z,92.99
2018-03-30T02:09:14.244Z,93.75
2018-03-30T02:10:14.223Z,94.08
2018-03-30T02:11:14.190Z,93.41
2018-03-30T02:12:14.171Z,93.70
2018-03-30T02:13:14.136Z,93.79
2018-03-30T02:14:14.110Z,94.18
2018-03-30T02:15:14.087Z,94.37
2018-03-30T02:16:14.054Z,94.46
2018-03-30T02:17:14.025Z,94.37
2018-03-30T02:18:14.018Z,93.41
2018-03-30T02:19:13.978Z,94.65
2018-03-30T02:20:13.946Z,93.75
2018-03-30T02:21:13.925Z,93.18
2018-03-30T02:22:13.890Z,94.18
2018-03-30T02:23:13.872Z,93.23
2018-03-30T02:24:13.838Z,93.79
2018-03-30T02:25:13.813Z,94.37
2018-03-30T02:26:13.791Z,93.51
2018-03-30T02:27:13.762Z,93.99
2018-03-30T02:28:13.732Z,94.08
2018-03-30T02:29:13.705Z,94.37
2018-03-30T02:30:13.695Z,93.23
2018-03-30T02:31:13.676Z,93.32
2018-03-30T02:32:13.628Z,93.79
2018-03-30T02:33:13.597Z,94.56
2018-03-30T02:34:13.583Z,93.89
2018-03-30T02:35:13.551Z,93.37
2018-03-30T02:36:13.520Z,93.94
2018-03-30T02:37:13.492Z,93.60
2018-03-30T02:38:13.471Z,94.23
2018-03-30T02:39:13.442Z,94.46
2018-03-30T02:40:13.417Z,94.79
2018-03-30T02:41:13.382Z,93.84
2018-03-30T02:42:13.366Z,94.60
2018-03-30T02:43:13.330Z,93.99
2018-03-30T02:44:13.303Z,94.08
2018-03-30T02:45:13.281Z,94.18
2018-03-30T02:46:13.258Z,93.84
2018-03-30T02:47:13.234Z,94.23
2018-03-30T02:48:13.196Z,94.27
2018-03-30T02:49:13.168Z,93.27
2018-03-30T02:50:13.157Z,93.65
2018-03-30T02:51:13.120Z,94.03
2018-03-30T02:52:13.094Z,94.08
2018-03-30T02:53:13.065Z,93.99
2018-03-30T02:54:13.035Z,93.51
2018-03-30T02:55:13.015Z,93.84
2018-03-30T02:56:12.979Z,93.99
2018-03-30T02:57:12.975Z,93.41
2018-03-30T02:58:12.928Z,94.08
2018-03-30T02:59:12.910Z,94.03
2018-03-30T03:00:12.876Z,93.99
2018-03-30T03:01:12.848Z,94.65
2018-03-30T03:02:12.819Z,93.32
2018-03-30T03:03:12.795Z,93.75
2018-03-30T03:04:12.783Z,94.27
2018-03-30T03:05:12.742Z,93.60
2018-03-30T03:06:12.716Z,94.27
2018-03-30T03:07:13.408Z,93.08
2018-03-30T03:08:12.659Z,94.51
2018-03-30T03:09:12.636Z,93.94
2018-03-30T03:10:12.611Z,94.32
2018-03-30T03:11:12.582Z,94.51
2018-03-30T03:12:12.555Z,94.03
2018-03-30T03:13:12.521Z,93.46
2018-03-30T03:14:12.505Z,93.89
2018-03-30T03:15:12.475Z,94.37
2018-03-30T03:16:12.450Z,94.27
2018-03-30T03:17:12.420Z,94.42
2018-03-30T03:18:12.390Z,94.32
2018-03-30T03:19:12.358Z,94.46
2018-03-30T03:20:12.346Z,94.37
2018-03-30T03:21:12.319Z,94.46
2018-03-30T03:22:12.288Z,94.18
2018-03-30T03:23:12.259Z,93.32
2018-03-30T03:24:12.227Z,94.27
2018-03-30T03:25:12.209Z,93.99
2018-03-30T03:26:12.172Z,93.37
2018-03-30T03:27:12.155Z,94.08
2018-03-30T03:28:12.122Z,94.08
2018-03-30T03:29:12.092Z,93.70
2018-03-30T03:30:12.075Z,93.79
2018-03-30T03:31:12.045Z,93.99
2018-03-30T03:32:12.022Z,93.23
2018-03-30T03:33:11.994Z,94.84
2018-03-30T03:34:11.962Z,94.37
2018-03-30T03:35:11.933Z,94.27
2018-03-30T03:36:11.908Z,93.99
2018-03-30T03:37:11.885Z,93.79
2018-03-30T03:38:11.861Z,94.27
2018-03-30T03:39:11.828Z,93.32
2018-03-30T03:40:11.810Z,94.08
2018-03-30T03:41:11.769Z,93.79
2018-03-30T03:42:11.744Z,94.27
2018-03-30T03:43:11.715Z,94.18
2018-03-30T03:44:11.701Z,93.60
2018-03-30T03:45:11.667Z,94.37
2018-03-30T03:46:11.644Z,94.27
2018-03-30T03:47:11.610Z,93.60
2018-03-30T03:48:11.592Z,94.56
2018-03-30T03:49:11.560Z,94.27
2018-03-30T03:50:11.532Z,93.51
2018-03-30T03:51:11.511Z,93.41
2018-03-30T03:52:11.486Z,94.56
2018-03-30T03:53:11.451Z,93.89
2018-03-30T03:54:11.423Z,93.79
2018-03-30T03:55:11.405Z,93.79
2018-03-30T03:56:11.371Z,94.08
2018-03-30T03:57:11.345Z,93.79
2018-03-30T03:58:11.320Z,94.56
2018-03-30T03:59:11.296Z,94.27
2018-03-30T04:00:11.261Z,94.56
2018-03-30T04:01:11.282Z,93.89
2018-03-30T04:02:11.214Z,93.60
2018-03-30T04:03:11.190Z,93.79
2018-03-30T04:04:11.155Z,93.23
2018-03-30T04:05:11.136Z,94.84
2018-03-30T04:06:11.100Z,94.37
2018-03-30T04:07:11.079Z,94.46
2018-03-30T04:08:11.052Z,93.79
2018-03-30T04:09:11.025Z,93.89
2018-03-30T04:10:10.993Z,94.08
2018-03-30T04:11:10.963Z,94.56
2018-03-30T04:12:10.945Z,93.32
2018-03-30T04:13:10.919Z,95.27
2018-03-30T04:14:10.891Z,94.65
2018-03-30T04:15:10.861Z,94.18
2018-03-30T04:16:10.837Z,94.18
2018-03-30T04:17:10.800Z,93.99
2018-03-30T04:18:10.786Z,93.89
2018-03-30T04:19:10.752Z,94.65
2018-03-30T04:20:10.728Z,94.18
2018-03-30T04:21:10.704Z,94.18
2018-03-30T04:22:10.667Z,93.99
2018-03-30T04:23:10.646Z,94.37
2018-03-30T04:24:10.626Z,93.99
2018-03-30T04:25:10.591Z,94.37
2018-03-30T04:26:10.569Z,94.56
2018-03-30T04:27:10.594Z,93.51
2018-03-30T04:28:10.517Z,95.03
2018-03-30T04:29:10.492Z,93.23
2018-03-30T04:30:10.463Z,93.32
2018-03-30T04:31:10.437Z,94.27
2018-03-30T04:32:10.405Z,94.65
2018-03-30T04:33:10.376Z,94.37
2018-03-30T04:34:10.357Z,94.27
2018-03-30T04:35:10.320Z,93.60
2018-03-30T04:36:10.333Z,94.37
2018-03-30T04:37:10.279Z,93.89
2018-03-30T04:38:10.239Z,94.74
2018-03-30T04:39:10.216Z,93.89
2018-03-30T04:40:10.192Z,94.65
2018-03-30T04:41:10.155Z,94.46
2018-03-30T04:42:10.139Z,93.60
2018-03-30T04:43:10.110Z,95.03
2018-03-30T04:44:10.084Z,94.46
2018-03-30T04:45:10.057Z,94.27
2018-03-30T04:46:10.035Z,94.65
2018-03-30T04:47:09.998Z,94.37
2018-03-30T04:48:09.973Z,94.08
2018-03-30T04:49:09.954Z,94.37
2018-03-30T04:50:09.927Z,93.89
2018-03-30T04:51:09.892Z,94.08
2018-03-30T04:52:09.873Z,94.18
2018-03-30T04:53:09.844Z,93.60
2018-03-30T04:54:09.823Z,93.99
2018-03-30T04:55:09.794Z,94.37
2018-03-30T04:56:09.756Z,94.46
2018-03-30T04:57:09.735Z,94.37
2018-03-30T04:58:09.711Z,93.99
2018-03-30T04:59:09.686Z,94.74
2018-03-30T05:00:09.656Z,94.27
2018-03-30T05:01:09.624Z,94.08
2018-03-30T05:02:09.598Z,94.56
2018-03-30T05:03:09.577Z,94.18
2018-03-30T05:04:09.541Z,94.08
2018-03-30T05:05:09.514Z,94.93
2018-03-30T05:06:09.500Z,94.46
2018-03-30T05:07:09.468Z,94.93
2018-03-30T05:08:09.432Z,94.08
2018-03-30T05:09:09.412Z,94.27
2018-03-30T05:10:09.383Z,94.27
2018-03-30T05:11:09.349Z,93.89
2018-03-30T05:12:09.331Z,94.56
2018-03-30T05:13:09.302Z,94.27
2018-03-30T05:14:09.281Z,94.56
2018-03-30T05:15:09.246Z,94.56
2018-03-30T05:16:09.225Z,94.37
2018-03-30T05:17:09.195Z,94.27
2018-03-30T05:18:09.170Z,94.27
2018-03-30T05:19:09.141Z,94.65
2018-03-30T05:20:09.134Z,94.46
2018-03-30T05:21:09.090Z,94.74
2018-03-30T05:22:09.066Z,93.79
2018-03-30T05:23:09.036Z,94.27
2018-03-30T05:24:09.012Z,94.37
2018-03-30T05:25:08.982Z,93.41
2018-03-30T05:26:08.965Z,94.65
2018-03-30T05:27:08.930Z,93.79
2018-03-30T05:28:08.904Z,94.18
2018-03-30T05:29:08.933Z,93.89
2018-03-30T05:30:08.850Z,94.37
2018-03-30T05:31:08.822Z,95.22
2018-03-30T05:32:08.803Z,94.08
2018-03-30T05:33:08.765Z,94.74
2018-03-30T05:34:08.750Z,93.60
2018-03-30T05:35:08.714Z,94.18
2018-03-30T05:36:08.696Z,94.37
2018-03-30T05:37:08.661Z,94.56
2018-03-30T05:38:08.640Z,94.46
2018-03-30T05:39:08.607Z,94.46
2018-03-30T05:40:08.578Z,94.37
2018-03-30T05:41:08.552Z,93.23
2018-03-30T05:42:08.530Z,94.84
2018-03-30T05:43:08.503Z,95.12
2018-03-30T05:44:08.470Z,93.89
2018-03-30T05:45:08.444Z,94.56
2018-03-30T05:46:08.426Z,94.37
2018-03-30T05:47:08.397Z,94.74
2018-03-30T05:48:08.358Z,94.84
2018-03-30T05:49:08.348Z,93.60
2018-03-30T05:50:08.312Z,94.65
2018-03-30T05:51:08.284Z,94.08
2018-03-30T05:52:08.260Z,94.84
2018-03-30T05:53:08.234Z,93.79
2018-03-30T05:54:08.210Z,94.56
2018-03-30T05:55:08.175Z,94.08
2018-03-30T05:56:08.153Z,94.84
2018-03-30T05:57:08.118Z,94.27
2018-03-30T05:58:08.101Z,95.03
2018-03-30T05:59:08.073Z,94.27
2018-03-30T06:00:08.048Z,94.37
2018-03-30T06:01:08.021Z,93.23
2018-03-30T06:02:07.984Z,95.22
2018-03-30T06:03:07.963Z,94.08
2018-03-30T06:04:07.941Z,93.46
2018-03-30T06:05:07.915Z,94.46
2018-03-30T06:06:07.891Z,94.46
2018-03-30T06:07:07.861Z,94.60
2018-03-30T06:08:07.839Z,94.46
2018-03-30T06:09:07.807Z,94.32
2018-03-30T06:10:07.778Z,93.32
2018-03-30T06:11:07.751Z,94.70
2018-03-30T06:12:07.722Z,94.60
2018-03-30T06:13:07.698Z,94.51
2018-03-30T06:14:07.666Z,93.27
2018-03-30T06:15:07.669Z,94.60
2018-03-30T06:16:07.621Z,94.32
2018-03-30T06:17:07.590Z,94.22
2018-03-30T06:18:07.568Z,94.51
2018-03-30T06:19:07.546Z,94.22
2018-03-30T06:20:07.526Z,94.03
2018-03-30T06:21:07.485Z,94.60
2018-03-30T06:22:07.459Z,93.37
2018-03-30T06:23:07.431Z,95.08
2018-03-30T06:24:07.402Z,95.27
2018-03-30T06:25:07.390Z,93.37
2018-03-30T06:26:07.354Z,94.56
2018-03-30T06:27:07.321Z,94.08
2018-03-30T06:28:07.303Z,94.74
2018-03-30T06:29:07.270Z,94.46
2018-03-30T06:30:07.254Z,93.32
2018-03-30T06:31:07.223Z,93.79
2018-03-30T06:32:07.183Z,94.27
2018-03-30T06:33:07.170Z,93.51
2018-03-30T06:34:07.159Z,94.08
2018-03-30T06:35:07.125Z,93.89
2018-03-30T06:36:07.086Z,93.79
2018-03-30T06:37:07.131Z,93.55
2018-03-30T06:38:07.035Z,93.74
2018-03-30T06:39:07.002Z,93.74
2018-03-30T06:40:06.982Z,92.99
2018-03-30T06:41:06.949Z,93.84
2018-03-30T06:42:06.927Z,93.94
2018-03-30T06:43:06.976Z,92.03
2018-03-30T06:44:06.874Z,92.99
2018-03-30T06:45:06.845Z,92.79
2018-03-30T06:46:06.821Z,92.60
2018-03-30T06:47:06.798Z,92.99
2018-03-30T06:48:06.772Z,93.08
2018-03-30T06:49:06.735Z,92.89
2018-03-30T06:50:06.721Z,93.22
2018-03-30T06:51:06.708Z,92.46
2018-03-30T06:52:06.662Z,92.36
2018-03-30T06:53:06.639Z,93.13
2018-03-30T06:54:06.612Z,91.89
2018-03-30T06:55:06.583Z,92.65
2018-03-30T06:56:06.556Z,92.84
2018-03-30T06:57:06.535Z,92.08
2018-03-30T06:58:06.507Z,91.99
2018-03-30T06:59:06.474Z,91.70
2018-03-30T07:00:06.461Z,91.03
2018-03-30T07:01:06.434Z,91.22
2018-03-30T07:02:06.401Z,91.79
2018-03-30T07:03:06.379Z,90.75
2018-03-30T07:04:06.355Z,91.22
2018-03-30T07:05:06.367Z,91.22
2018-03-30T07:06:06.299Z,91.03
2018-03-30T07:07:06.269Z,91.13
2018-03-30T07:08:06.255Z,91.51
2018-03-30T07:09:06.367Z,91.70
2018-03-30T07:10:06.193Z,90.75
2018-03-30T07:11:06.180Z,90.65
2018-03-30T07:12:06.145Z,90.65
2018-03-30T07:13:06.106Z,90.27
2018-03-30T07:14:06.091Z,91.31
2018-03-30T07:15:06.062Z,90.94
2018-03-30T07:16:06.038Z,90.46
2018-03-30T07:17:06.013Z,91.22
2018-03-30T07:18:05.983Z,90.46
2018-03-30T07:19:05.955Z,90.56
2018-03-30T07:20:05.930Z,90.17
2018-03-30T07:21:05.899Z,89.61
2018-03-30T07:22:05.883Z,90.12
2018-03-30T07:23:06.181Z,89.75
2018-03-30T07:24:05.859Z,89.70
2018-03-30T07:25:05.804Z,89.03
2018-03-30T07:26:05.772Z,88.89
2018-03-30T07:27:05.753Z,89.26
2018-03-30T07:28:05.733Z,89.94
2018-03-30T07:29:05.708Z,90.31
2018-03-30T07:30:05.682Z,90.17
2018-03-30T07:31:05.665Z,88.98
2018-03-30T07:32:05.650Z,90.03
2018-03-30T07:33:05.594Z,89.07
2018-03-30T07:34:05.610Z,88.03
2018-03-30T07:35:05.551Z,88.51
2018-03-30T07:36:05.998Z,88.98
2018-03-30T07:37:05.760Z,88.70
2018-03-30T07:38:05.867Z,88.41
2018-03-30T07:39:05.875Z,87.93
2018-03-30T07:40:05.813Z,87.07
2018-03-30T07:41:06.317Z,88.51
2018-03-30T07:42:06.120Z,87.84
2018-03-30T07:43:05.853Z,88.51
2018-03-30T07:44:05.636Z,90.41
2018-03-30T07:45:05.409Z,88.64
2018-03-30T07:46:05.584Z,87.31
2018-03-30T07:47:05.986Z,89.26
2018-03-30T07:48:05.545Z,88.70
2018-03-30T07:49:05.221Z,88.74
2018-03-30T07:50:05.191Z,87.60
2018-03-30T07:51:05.178Z,87.55
2018-03-30T07:52:05.140Z,88.55
2018-03-30T07:53:05.172Z,88.64
2018-03-30T07:54:05.098Z,87.69
2018-03-30T07:55:05.074Z,87.69
2018-03-30T07:56:05.037Z,87.02
2018-03-30T07:57:05.019Z,86.74
2018-03-30T07:58:04.958Z,86.36
2018-03-30T07:59:04.941Z,87.50
2018-03-30T08:00:04.899Z,85.60
2018-03-30T08:01:04.878Z,86.16
2018-03-30T08:02:04.858Z,84.20
2018-03-30T08:03:04.831Z,83.40
2018-03-30T08:04:04.809Z,83.21
2018-03-30T08:05:04.777Z,85.93
2018-03-30T08:06:04.747Z,84.30
2018-03-30T08:07:04.720Z,82.87
2018-03-30T08:08:04.699Z,82.78
2018-03-30T08:09:04.717Z,82.30
2018-03-30T08:10:04.646Z,82.30
2018-03-30T08:11:04.629Z,83.44
2018-03-30T08:12:04.601Z,83.73
2018-03-30T08:13:04.571Z,83.35
2018-03-30T08:14:04.544Z,82.30
2018-03-30T08:15:04.521Z,82.59
2018-03-30T08:16:04.496Z,81.44
2018-03-30T08:17:04.466Z,81.82
2018-03-30T08:18:04.452Z,80.35
2018-03-30T08:19:04.415Z,82.11
2018-03-30T08:20:04.394Z,83.64
2018-03-30T08:21:04.418Z,82.59
2018-03-30T08:22:04.341Z,80.20
2018-03-30T08:23:04.311Z,81.06
2018-03-30T08:24:04.302Z,80.39
2018-03-30T08:25:04.263Z,80.01
2018-03-30T08:26:04.240Z,79.63
2018-03-30T08:27:04.217Z,80.49
2018-03-30T08:28:04.192Z,82.40
2018-03-30T08:29:04.169Z,81.15
2018-03-30T08:30:04.132Z,81.25
2018-03-30T08:31:04.110Z,81.44
2018-03-30T08:32:04.092Z,80.96
2018-03-30T08:33:04.064Z,80.39
2018-03-30T08:34:04.038Z,81.06
2018-03-30T08:35:04.006Z,80.87
2018-03-30T08:36:03.992Z,78.20
2018-03-30T08:37:03.954Z,76.86
2018-03-30T08:38:03.950Z,78.01
2018-03-30T08:39:03.909Z,78.39
2018-03-30T08:40:03.878Z,77.25
2018-03-30T08:41:03.855Z,77.06
2018-03-30T08:42:03.825Z,77.15
2018-03-30T08:43:03.800Z,76.96
2018-03-30T08:44:03.787Z,76.90
2018-03-30T08:45:03.756Z,75.62
2018-03-30T08:46:03.727Z,75.15
2018-03-30T08:47:03.707Z,74.57
2018-03-30T08:48:03.975Z,76.23
2018-03-30T08:49:03.713Z,74.29
2018-03-30T08:50:03.641Z,73.47
2018-03-30T08:51:03.609Z,74.38
2018-03-30T08:52:03.573Z,72.96
2018-03-30T08:53:03.562Z,73.91
2018-03-30T08:54:03.518Z,72.32
2018-03-30T08:55:03.502Z,71.84
2018-03-30T08:56:03.482Z,70.86
2018-03-30T08:57:03.452Z,70.98
2018-03-30T08:58:03.430Z,71.18
2018-03-30T08:59:03.396Z,72.13
2018-03-30T09:00:03.379Z,72.32
2018-03-30T09:01:03.348Z,73.47
2018-03-30T09:02:03.416Z,73.66
2018-03-30T09:03:03.299Z,72.61
2018-03-30T09:04:03.273Z,71.75
2018-03-30T09:05:03.253Z,70.89
2018-03-30T09:06:03.262Z,70.70
2018-03-30T09:07:03.198Z,68.88
2018-03-30T09:08:03.171Z,68.98
2018-03-30T09:09:03.137Z,68.88
2018-03-30T09:10:03.124Z,69.56
2018-03-30T09:11:03.090Z,69.37
2018-03-30T09:12:03.076Z,69.65
2018-03-30T09:13:03.049Z,68.51
2018-03-30T09:14:03.010Z,68.03
2018-03-30T09:15:02.990Z,67.30
2018-03-30T09:16:02.974Z,68.63
2018-03-30T09:17:02.945Z,69.49
2018-03-30T09:18:02.913Z,69.31
2018-03-30T09:19:02.887Z,69.78
2018-03-30T09:20:02.867Z,69.68
2018-03-30T09:21:02.839Z,68.35
2018-03-30T09:22:02.821Z,68.26
2018-03-30T09:23:02.794Z,67.97
2018-03-30T09:24:02.772Z,68.35
2018-03-30T09:25:02.737Z,67.40
2018-03-30T09:26:02.730Z,67.97
2018-03-30T09:27:02.693Z,68.16
2018-03-30T09:28:02.669Z,68.06
2018-03-30T09:29:02.641Z,68.26
2018-03-30T09:30:02.612Z,67.87
2018-03-30T09:31:02.609Z,66.63
2018-03-30T09:32:02.559Z,66.06
2018-03-30T09:33:02.537Z,67.58
2018-03-30T09:34:02.500Z,66.44
2018-03-30T09:35:02.579Z,66.44
2018-03-30T09:36:02.455Z,65.67
2018-03-30T09:37:02.440Z,64.72
2018-03-30T09:38:02.407Z,63.96
2018-03-30T09:39:02.376Z,64.81
2018-03-30T09:40:02.354Z,66.15
2018-03-30T09:41:02.325Z,64.34
2018-03-30T09:42:02.308Z,65.61
2018-03-30T09:43:02.282Z,64.18
2018-03-30T09:44:02.257Z,65.90
2018-03-30T09:45:02.234Z,65.77
2018-03-30T09:46:02.208Z,65.04
2018-03-30T09:47:02.249Z,63.42
2018-03-30T09:48:02.159Z,64.85
2018-03-30T09:49:02.146Z,63.32
2018-03-30T09:50:02.111Z,64.18
2018-03-30T09:51:02.074Z,63.70
2018-03-30T09:52:02.068Z,62.65
2018-03-30T09:53:02.026Z,63.23
2018-03-30T09:54:02.005Z,63.51
2018-03-30T09:55:01.980Z,64.18
2018-03-30T09:56:01.953Z,62.08
2018-03-30T09:57:01.929Z,61.22
2018-03-30T09:58:01.908Z,61.03
2018-03-30T09:59:01.888Z,60.27
2018-03-30T10:00:01.857Z,60.74
2018-03-30T10:01:01.823Z,59.98
2018-03-30T10:02:01.807Z,60.17
2018-03-30T10:03:01.781Z,59.88
2018-03-30T10:04:01.759Z,59.02
2018-03-30T10:05:01.727Z,59.22
2018-03-30T10:06:01.708Z,59.50
2018-03-30T10:07:01.676Z,60.36
2018-03-30T10:08:01.650Z,60.36
2018-03-30T10:09:01.630Z,59.22
2018-03-30T10:10:01.613Z,59.22
2018-03-30T10:11:01.577Z,60.49
2018-03-30T10:12:01.560Z,58.38
2018-03-30T10:13:01.527Z,58.58
2018-03-30T10:14:01.508Z,58.95
2018-03-30T10:15:01.476Z,59.05
2018-03-30T10:16:01.465Z,58.38
2018-03-30T10:17:01.450Z,59.24
2018-03-30T10:18:01.407Z,58.98
2018-03-30T10:19:01.374Z,58.41
2018-03-30T10:20:01.364Z,60.13
2018-03-30T10:21:01.332Z,59.84
2018-03-30T10:22:01.308Z,58.70
2018-03-30T10:23:01.289Z,59.27
2018-03-30T10:24:01.258Z,59.18
2018-03-30T10:25:01.242Z,60.23
2018-03-30T10:26:01.211Z,60.04
2018-03-30T10:27:01.218Z,57.46
2018-03-30T10:28:01.172Z,57.46
2018-03-30T10:29:01.144Z,57.07
2018-03-30T10:30:01.123Z,56.88
2018-03-30T10:31:01.084Z,57.17
2018-03-30T10:32:01.070Z,56.88
2018-03-30T10:33:01.047Z,57.17
2018-03-30T10:34:01.018Z,58.15
2018-03-30T10:35:00.995Z,58.06
2018-03-30T10:36:00.994Z,57.87
2018-03-30T10:37:00.954Z,57.77
2018-03-30T10:38:00.951Z,56.82
2018-03-30T10:39:00.900Z,55.67
2018-03-30T10:40:00.877Z,55.67
2018-03-30T10:41:00.854Z,57.58
2018-03-30T10:42:00.836Z,57.58
2018-03-30T10:43:00.797Z,56.72
2018-03-30T10:44:00.785Z,55.76
2018-03-30T10:45:00.751Z,55.29
2018-03-30T10:46:00.740Z,55.38
2018-03-30T10:47:00.709Z,55.19
2018-03-30T10:48:00.692Z,55.29
2018-03-30T10:49:00.657Z,55.67
2018-03-30T10:50:00.639Z,55.10
2018-03-30T10:51:00.609Z,55.00
2018-03-30T10:52:00.598Z,55.10
2018-03-30T10:53:00.565Z,56.05
2018-03-30T10:54:00.551Z,55.76
2018-03-30T10:55:00.520Z,55.29
2018-03-30T10:56:00.500Z,54.61
2018-03-30T10:57:00.469Z,56.24
2018-03-30T10:58:00.451Z,54.61
2018-03-30T10:59:00.436Z,54.52
2018-03-30T11:00:00.403Z,54.90
2018-03-30T11:01:00.393Z,55.57
2018-03-30T11:02:00.348Z,54.90
2018-03-30T11:03:00.328Z,54.43
2018-03-30T11:04:00.302Z,55.10
2018-03-30T11:05:00.284Z,55.76
2018-03-30T11:06:00.264Z,56.53
2018-03-30T11:07:00.321Z,56.53
2018-03-30T11:08:00.222Z,55.47
2018-03-30T11:09:00.189Z,55.86
2018-03-30T11:10:00.299Z,55.76
2018-03-30T11:11:00.212Z,54.61
2018-03-30T11:12:00.122Z,53.28
2018-03-30T11:13:00.098Z,52.99
2018-03-30T11:14:00.068Z,52.89
2018-03-30T11:15:00.051Z,52.99
2018-03-30T11:16:00.022Z,52.51
2018-03-30T11:16:59.997Z,52.22
2018-03-30T11:17:59.997Z,53.37
2018-03-30T11:18:59.954Z,53.85
2018-03-30T11:19:59.927Z,53.78
2018-03-30T11:20:59.901Z,52.99
2018-03-30T11:21:59.886Z,52.63
2018-03-30T11:22:59.857Z,52.25
2018-03-30T11:23:59.853Z,52.73
2018-03-30T11:24:59.807Z,53.02
2018-03-30T11:25:59.792Z,52.25
2018-03-30T11:26:59.754Z,53.20
2018-03-30T11:27:59.747Z,53.69
2018-03-30T11:28:59.714Z,54.64
2018-03-30T11:29:59.690Z,54.74
2018-03-30T11:30:59.667Z,52.44
2018-03-30T11:31:59.645Z,52.54
2018-03-30T11:32:59.623Z,51.97
2018-03-30T11:33:59.596Z,51.97
2018-03-30T11:34:59.584Z,52.34
2018-03-30T11:35:59.580Z,52.25
2018-03-30T11:36:59.528Z,52.73
2018-03-30T11:37:59.498Z,53.02
2018-03-30T11:38:59.489Z,52.06
2018-03-30T11:39:59.465Z,52.63
2018-03-30T11:40:59.446Z,53.62
2018-03-30T11:41:59.408Z,53.91
2018-03-30T11:42:59.393Z,52.47
2018-03-30T11:43:59.358Z,52.09
2018-03-30T11:44:59.340Z,51.22
2018-03-30T11:45:59.312Z,50.46
2018-03-30T11:46:59.291Z,50.10
2018-03-30T11:47:59.276Z,50.65
2018-03-30T11:48:59.248Z,51.32
2018-03-30T11:49:59.220Z,50.67
2018-03-30T11:50:59.197Z,50.56
2018-03-30T11:51:59.181Z,51.03
2018-03-30T11:52:59.153Z,51.22
2018-03-30T11:53:59.125Z,50.46
2018-03-30T11:54:59.101Z,51.13
2018-03-30T11:55:59.136Z,50.84
2018-03-30T11:56:59.062Z,51.22
2018-03-30T11:57:59.041Z,51.32
2018-03-30T11:58:59.018Z,50.65
2018-03-30T11:59:58.993Z,50.17
2018-03-30T12:00:58.967Z,50.17
2018-03-30T12:01:58.946Z,50.17
2018-03-30T12:02:58.921Z,51.61
2018-03-30T12:03:58.895Z,51.13
2018-03-30T12:04:58.876Z,50.17
2018-03-30T12:05:58.855Z,51.03
2018-03-30T12:06:58.833Z,51.70
2018-03-30T12:07:58.919Z,50.65
2018-03-30T12:08:58.781Z,49.98
2018-03-30T12:09:58.758Z,50.56
2018-03-30T12:10:58.736Z,51.22
2018-03-30T12:11:58.706Z,50.46
2018-03-30T12:12:58.691Z,50.74
2018-03-30T12:13:58.657Z,51.03
2018-03-30T12:14:58.645Z,51.79
2018-03-30T12:15:58.618Z,50.93
2018-03-30T12:16:58.599Z,51.06
2018-03-30T12:17:58.570Z,50.29
2018-03-30T12:18:58.552Z,48.75
2018-03-30T12:19:58.564Z,48.93
2018-03-30T12:20:58.505Z,49.50
2018-03-30T12:21:58.481Z,49.02
2018-03-30T12:22:58.457Z,48.54
2018-03-30T12:23:58.433Z,48.73
2018-03-30T12:24:58.412Z,49.88
2018-03-30T12:25:58.396Z,51.22
2018-03-30T12:26:58.367Z,50.17
2018-03-30T12:27:58.345Z,50.26
2018-03-30T12:28:58.312Z,49.50
2018-03-30T12:29:58.299Z,50.17
2018-03-30T12:30:58.272Z,50.36
2018-03-30T12:31:58.244Z,52.18
2018-03-30T12:32:58.221Z,51.73
2018-03-30T12:33:58.201Z,50.96
2018-03-30T12:34:58.182Z,50.58
2018-03-30T12:35:58.153Z,47.51
2018-03-30T12:36:58.131Z,48.18
2018-03-30T12:37:58.115Z,48.28
2018-03-30T12:38:58.088Z,47.44
2018-03-30T12:39:58.058Z,47.25
2018-03-30T12:40:58.091Z,47.73
2018-03-30T12:41:58.177Z,46.50
2018-03-30T12:42:58.000Z,46.19
2018-03-30T12:43:57.971Z,46.77
2018-03-30T12:44:57.953Z,46.86
2018-03-30T12:45:57.924Z,45.81
2018-03-30T12:46:57.904Z,47.92
2018-03-30T12:47:57.873Z,47.08
2018-03-30T12:48:57.860Z,48.33
2018-03-30T12:49:57.827Z,46.60
2018-03-30T12:50:57.814Z,46.60
2018-03-30T12:51:57.815Z,45.54